sensor_id;sensor_type;location;lat;lon;timestamp;temperature;humidity
12874;DHT22;6505;51.114;13.128;2023-04-03T00:01:19;12.00;46.40
12874;DHT22;6505;51.114;13.128;2023-04-03T00:03:47;11.90;46.30
12874;DHT22;6505;51.114;13.128;2023-04-03T00:06:16;11.90;46.10
12874;DHT22;6505;51.114;13.128;2023-04-03T00:08:44;12.00;46.00
12874;DHT22;6505;51.114;13.128;2023-04-03T00:11:12;11.90;46.10
12874;DHT22;6505;51.114;13.128;2023-04-03T00:13:43;11.90;46.40
12874;DHT22;6505;51.114;13.128;2023-04-03T00:16:12;11.90;46.20
12874;DHT22;6505;51.114;13.128;2023-04-03T00:18:41;11.80;45.90
12874;DHT22;6505;51.114;13.128;2023-04-03T00:21:12;11.90;45.90
12874;DHT22;6505;51.114;13.128;2023-04-03T00:23:41;11.80;45.80
12874;DHT22;6505;51.114;13.128;2023-04-03T00:26:09;11.80;45.80
12874;DHT22;6505;51.114;13.128;2023-04-03T00:28:39;11.80;45.80
12874;DHT22;6505;51.114;13.128;2023-04-03T00:31:08;11.70;45.30
12874;DHT22;6505;51.114;13.128;2023-04-03T00:33:36;11.70;45.60
12874;DHT22;6505;51.114;13.128;2023-04-03T00:36:09;11.70;45.80
12874;DHT22;6505;51.114;13.128;2023-04-03T00:38:38;11.70;45.40
12874;DHT22;6505;51.114;13.128;2023-04-03T00:41:06;11.70;44.90
12874;DHT22;6505;51.114;13.128;2023-04-03T00:43:35;11.70;45.00
12874;DHT22;6505;51.114;13.128;2023-04-03T00:46:03;11.70;44.80
12874;DHT22;6505;51.114;13.128;2023-04-03T00:48:34;11.60;44.60
12874;DHT22;6505;51.114;13.128;2023-04-03T00:51:10;11.60;44.50
12874;DHT22;6505;51.114;13.128;2023-04-03T00:53:44;11.50;44.30
12874;DHT22;6505;51.114;13.128;2023-04-03T00:56:17;11.50;44.50
12874;DHT22;6505;51.114;13.128;2023-04-03T00:58:51;11.50;44.80
12874;DHT22;6505;51.114;13.128;2023-04-03T01:01:25;11.50;44.70
12874;DHT22;6505;51.114;13.128;2023-04-03T01:03:55;11.50;45.00
12874;DHT22;6505;51.114;13.128;2023-04-03T01:06:27;11.40;44.90
12874;DHT22;6505;51.114;13.128;2023-04-03T01:09:04;11.50;44.70
12874;DHT22;6505;51.114;13.128;2023-04-03T01:11:33;11.40;44.70
12874;DHT22;6505;51.114;13.128;2023-04-03T01:14:01;11.40;44.80
12874;DHT22;6505;51.114;13.128;2023-04-03T01:16:29;11.40;44.60
12874;DHT22;6505;51.114;13.128;2023-04-03T01:19:00;11.40;44.70
12874;DHT22;6505;51.114;13.128;2023-04-03T01:21:53;11.40;44.70
12874;DHT22;6505;51.114;13.128;2023-04-03T01:24:33;11.40;44.80
12874;DHT22;6505;51.114;13.128;2023-04-03T01:27:09;11.30;45.10
12874;DHT22;6505;51.114;13.128;2023-04-03T01:29:39;11.40;45.10
12874;DHT22;6505;51.114;13.128;2023-04-03T01:32:11;11.40;44.90
12874;DHT22;6505;51.114;13.128;2023-04-03T01:34:41;11.30;44.60
12874;DHT22;6505;51.114;13.128;2023-04-03T01:37:09;11.30;44.80
12874;DHT22;6505;51.114;13.128;2023-04-03T01:39:37;11.30;44.80
12874;DHT22;6505;51.114;13.128;2023-04-03T01:42:05;11.30;44.90
12874;DHT22;6505;51.114;13.128;2023-04-03T01:44:38;11.30;44.90
12874;DHT22;6505;51.114;13.128;2023-04-03T01:47:06;11.30;45.10
12874;DHT22;6505;51.114;13.128;2023-04-03T01:49:36;11.30;45.10
12874;DHT22;6505;51.114;13.128;2023-04-03T01:52:04;11.30;45.20
12874;DHT22;6505;51.114;13.128;2023-04-03T01:54:32;11.30;44.80
12874;DHT22;6505;51.114;13.128;2023-04-03T01:57:01;11.30;44.90
12874;DHT22;6505;51.114;13.128;2023-04-03T01:59:29;11.30;44.80
12874;DHT22;6505;51.114;13.128;2023-04-03T02:01:57;11.20;44.60
12874;DHT22;6505;51.114;13.128;2023-04-03T02:04:25;11.20;44.70
12874;DHT22;6505;51.114;13.128;2023-04-03T02:06:55;11.20;44.70
12874;DHT22;6505;51.114;13.128;2023-04-03T02:09:23;11.20;44.60
12874;DHT22;6505;51.114;13.128;2023-04-03T02:11:51;11.20;44.70
12874;DHT22;6505;51.114;13.128;2023-04-03T02:14:20;11.20;44.60
12874;DHT22;6505;51.114;13.128;2023-04-03T02:16:48;11.20;44.50
12874;DHT22;6505;51.114;13.128;2023-04-03T02:19:16;11.10;44.40
12874;DHT22;6505;51.114;13.128;2023-04-03T02:21:44;11.10;44.20
12874;DHT22;6505;51.114;13.128;2023-04-03T02:24:15;11.10;44.30
12874;DHT22;6505;51.114;13.128;2023-04-03T02:26:43;11.10;44.20
12874;DHT22;6505;51.114;13.128;2023-04-03T02:29:11;11.10;44.10
12874;DHT22;6505;51.114;13.128;2023-04-03T02:31:39;11.00;44.20
12874;DHT22;6505;51.114;13.128;2023-04-03T02:34:07;11.00;44.20
12874;DHT22;6505;51.114;13.128;2023-04-03T02:36:36;11.00;43.90
12874;DHT22;6505;51.114;13.128;2023-04-03T02:39:07;11.00;44.00
12874;DHT22;6505;51.114;13.128;2023-04-03T02:41:36;11.00;44.30
12874;DHT22;6505;51.114;13.128;2023-04-03T02:44:11;11.00;44.20
12874;DHT22;6505;51.114;13.128;2023-04-03T02:46:39;10.90;44.30
12874;DHT22;6505;51.114;13.128;2023-04-03T02:49:07;10.90;44.40
12874;DHT22;6505;51.114;13.128;2023-04-03T02:51:36;10.90;44.40
12874;DHT22;6505;51.114;13.128;2023-04-03T02:54:04;10.90;44.40
12874;DHT22;6505;51.114;13.128;2023-04-03T02:56:34;10.90;44.70
12874;DHT22;6505;51.114;13.128;2023-04-03T02:59:04;10.90;44.60
12874;DHT22;6505;51.114;13.128;2023-04-03T03:01:34;10.90;44.40
12874;DHT22;6505;51.114;13.128;2023-04-03T03:04:02;10.90;44.50
12874;DHT22;6505;51.114;13.128;2023-04-03T03:06:30;10.80;44.00
12874;DHT22;6505;51.114;13.128;2023-04-03T03:08:59;10.80;44.10
12874;DHT22;6505;51.114;13.128;2023-04-03T03:11:27;10.80;44.20
12874;DHT22;6505;51.114;13.128;2023-04-03T03:13:56;10.80;44.40
12874;DHT22;6505;51.114;13.128;2023-04-03T03:16:25;10.80;44.40
12874;DHT22;6505;51.114;13.128;2023-04-03T03:18:53;10.70;44.30
12874;DHT22;6505;51.114;13.128;2023-04-03T03:21:23;10.70;44.10
12874;DHT22;6505;51.114;13.128;2023-04-03T03:23:51;10.70;44.10
12874;DHT22;6505;51.114;13.128;2023-04-03T03:26:19;10.70;44.40
12874;DHT22;6505;51.114;13.128;2023-04-03T03:28:47;10.70;44.50
12874;DHT22;6505;51.114;13.128;2023-04-03T03:31:16;10.70;44.50
12874;DHT22;6505;51.114;13.128;2023-04-03T03:33:44;10.70;44.50
12874;DHT22;6505;51.114;13.128;2023-04-03T03:36:12;10.60;44.10
12874;DHT22;6505;51.114;13.128;2023-04-03T03:38:41;10.60;44.30
12874;DHT22;6505;51.114;13.128;2023-04-03T03:41:09;10.60;44.40
12874;DHT22;6505;51.114;13.128;2023-04-03T03:43:38;10.60;44.50
12874;DHT22;6505;51.114;13.128;2023-04-03T03:46:07;10.60;44.60
12874;DHT22;6505;51.114;13.128;2023-04-03T03:48:36;10.60;44.70
12874;DHT22;6505;51.114;13.128;2023-04-03T03:51:04;10.60;44.60
12874;DHT22;6505;51.114;13.128;2023-04-03T03:53:35;10.60;44.80
12874;DHT22;6505;51.114;13.128;2023-04-03T03:56:07;10.60;44.90
12874;DHT22;6505;51.114;13.128;2023-04-03T03:58:38;10.60;44.80
12874;DHT22;6505;51.114;13.128;2023-04-03T04:01:06;10.60;44.60
12874;DHT22;6505;51.114;13.128;2023-04-03T04:03:42;10.50;44.80
12874;DHT22;6505;51.114;13.128;2023-04-03T04:06:13;10.50;44.70
12874;DHT22;6505;51.114;13.128;2023-04-03T04:08:42;10.60;45.00
12874;DHT22;6505;51.114;13.128;2023-04-03T04:11:11;10.60;45.00
12874;DHT22;6505;51.114;13.128;2023-04-03T04:13:41;10.50;45.00
12874;DHT22;6505;51.114;13.128;2023-04-03T04:16:10;10.50;45.00
12874;DHT22;6505;51.114;13.128;2023-04-03T04:18:38;10.50;45.00
12874;DHT22;6505;51.114;13.128;2023-04-03T04:21:08;10.50;45.10
12874;DHT22;6505;51.114;13.128;2023-04-03T04:23:37;10.50;45.10
12874;DHT22;6505;51.114;13.128;2023-04-03T04:26:06;10.50;45.00
12874;DHT22;6505;51.114;13.128;2023-04-03T04:28:36;10.50;45.10
12874;DHT22;6505;51.114;13.128;2023-04-03T04:31:05;10.50;45.10
12874;DHT22;6505;51.114;13.128;2023-04-03T04:33:33;10.50;45.00
12874;DHT22;6505;51.114;13.128;2023-04-03T04:36:04;10.50;45.00
12874;DHT22;6505;51.114;13.128;2023-04-03T04:38:34;10.40;45.00
12874;DHT22;6505;51.114;13.128;2023-04-03T04:41:02;10.40;44.90
12874;DHT22;6505;51.114;13.128;2023-04-03T04:43:30;10.40;45.00
12874;DHT22;6505;51.114;13.128;2023-04-03T04:46:03;10.40;45.00
12874;DHT22;6505;51.114;13.128;2023-04-03T04:48:37;10.40;45.20
12874;DHT22;6505;51.114;13.128;2023-04-03T04:51:07;10.40;45.00
12874;DHT22;6505;51.114;13.128;2023-04-03T04:53:38;10.30;45.00
12874;DHT22;6505;51.114;13.128;2023-04-03T04:56:08;10.30;45.00
12874;DHT22;6505;51.114;13.128;2023-04-03T04:58:37;10.30;45.20
12874;DHT22;6505;51.114;13.128;2023-04-03T05:01:09;10.30;45.20
12874;DHT22;6505;51.114;13.128;2023-04-03T05:03:47;10.30;45.30
12874;DHT22;6505;51.114;13.128;2023-04-03T05:06:16;10.30;45.40
12874;DHT22;6505;51.114;13.128;2023-04-03T05:08:45;10.40;45.50
12874;DHT22;6505;51.114;13.128;2023-04-03T05:11:13;10.30;45.30
12874;DHT22;6505;51.114;13.128;2023-04-03T05:13:43;10.40;45.40
12874;DHT22;6505;51.114;13.128;2023-04-03T05:16:12;10.30;45.20
12874;DHT22;6505;51.114;13.128;2023-04-03T05:18:41;10.40;45.40
12874;DHT22;6505;51.114;13.128;2023-04-03T05:21:16;10.30;45.10
12874;DHT22;6505;51.114;13.128;2023-04-03T05:23:47;10.30;45.20
12874;DHT22;6505;51.114;13.128;2023-04-03T05:26:16;10.30;45.20
12874;DHT22;6505;51.114;13.128;2023-04-03T05:28:46;10.30;45.30
12874;DHT22;6505;51.114;13.128;2023-04-03T05:31:14;10.30;45.20
12874;DHT22;6505;51.114;13.128;2023-04-03T05:33:43;10.30;45.20
12874;DHT22;6505;51.114;13.128;2023-04-03T05:36:16;10.30;45.30
12874;DHT22;6505;51.114;13.128;2023-04-03T05:38:49;10.30;45.40
12874;DHT22;6505;51.114;13.128;2023-04-03T05:41:19;10.30;45.30
12874;DHT22;6505;51.114;13.128;2023-04-03T05:43:48;10.30;45.40
12874;DHT22;6505;51.114;13.128;2023-04-03T05:46:19;10.30;45.30
12874;DHT22;6505;51.114;13.128;2023-04-03T05:48:52;10.20;45.30
12874;DHT22;6505;51.114;13.128;2023-04-03T05:51:25;10.30;45.40
12874;DHT22;6505;51.114;13.128;2023-04-03T05:54:04;10.30;45.40
12874;DHT22;6505;51.114;13.128;2023-04-03T05:56:37;10.40;45.20
12874;DHT22;6505;51.114;13.128;2023-04-03T05:59:05;10.30;45.00
12874;DHT22;6505;51.114;13.128;2023-04-03T06:01:34;10.30;45.00
12874;DHT22;6505;51.114;13.128;2023-04-03T06:04:01;10.30;45.00
12874;DHT22;6505;51.114;13.128;2023-04-03T06:06:46;10.20;44.80
12874;DHT22;6505;51.114;13.128;2023-04-03T06:09:18;10.20;45.10
12874;DHT22;6505;51.114;13.128;2023-04-03T06:11:47;10.20;45.20
12874;DHT22;6505;51.114;13.128;2023-04-03T06:14:16;10.30;45.30
12874;DHT22;6505;51.114;13.128;2023-04-03T06:16:44;10.20;45.40
12874;DHT22;6505;51.114;13.128;2023-04-03T06:19:13;10.20;45.60
12874;DHT22;6505;51.114;13.128;2023-04-03T06:21:46;10.30;45.50
12874;DHT22;6505;51.114;13.128;2023-04-03T06:24:17;10.30;45.40
12874;DHT22;6505;51.114;13.128;2023-04-03T06:26:46;10.30;45.50
12874;DHT22;6505;51.114;13.128;2023-04-03T06:29:15;10.40;45.20
12874;DHT22;6505;51.114;13.128;2023-04-03T06:31:43;10.40;45.00
12874;DHT22;6505;51.114;13.128;2023-04-03T06:34:11;10.40;45.00
12874;DHT22;6505;51.114;13.128;2023-04-03T06:36:40;10.40;45.00
12874;DHT22;6505;51.114;13.128;2023-04-03T06:39:12;10.40;45.10
12874;DHT22;6505;51.114;13.128;2023-04-03T06:41:43;10.40;45.00
12874;DHT22;6505;51.114;13.128;2023-04-03T06:44:11;10.40;45.00
12874;DHT22;6505;51.114;13.128;2023-04-03T06:46:43;10.40;45.00
12874;DHT22;6505;51.114;13.128;2023-04-03T06:49:12;10.50;45.10
12874;DHT22;6505;51.114;13.128;2023-04-03T06:51:41;10.40;45.00
12874;DHT22;6505;51.114;13.128;2023-04-03T06:54:09;10.50;45.00
12874;DHT22;6505;51.114;13.128;2023-04-03T06:56:37;10.50;45.00
12874;DHT22;6505;51.114;13.128;2023-04-03T06:59:07;10.50;44.90
12874;DHT22;6505;51.114;13.128;2023-04-03T07:01:35;10.50;45.00
12874;DHT22;6505;51.114;13.128;2023-04-03T07:04:03;10.50;44.70
12874;DHT22;6505;51.114;13.128;2023-04-03T07:06:32;10.50;44.60
12874;DHT22;6505;51.114;13.128;2023-04-03T07:09:00;10.60;44.60
12874;DHT22;6505;51.114;13.128;2023-04-03T07:11:29;10.50;44.90
12874;DHT22;6505;51.114;13.128;2023-04-03T07:13:57;10.50;44.80
12874;DHT22;6505;51.114;13.128;2023-04-03T07:16:26;10.50;44.70
12874;DHT22;6505;51.114;13.128;2023-04-03T07:18:54;10.50;44.70
12874;DHT22;6505;51.114;13.128;2023-04-03T07:21:22;10.50;44.60
12874;DHT22;6505;51.114;13.128;2023-04-03T07:23:50;10.50;44.20
12874;DHT22;6505;51.114;13.128;2023-04-03T07:26:19;10.50;44.10
12874;DHT22;6505;51.114;13.128;2023-04-03T07:28:47;10.50;44.10
12874;DHT22;6505;51.114;13.128;2023-04-03T07:31:17;10.50;44.10
12874;DHT22;6505;51.114;13.128;2023-04-03T07:33:46;10.50;44.50
12874;DHT22;6505;51.114;13.128;2023-04-03T07:36:17;10.50;44.60
12874;DHT22;6505;51.114;13.128;2023-04-03T07:38:46;10.50;44.60
12874;DHT22;6505;51.114;13.128;2023-04-03T07:41:15;10.50;44.60
12874;DHT22;6505;51.114;13.128;2023-04-03T07:43:45;10.50;44.80
12874;DHT22;6505;51.114;13.128;2023-04-03T07:46:13;10.50;43.80
12874;DHT22;6505;51.114;13.128;2023-04-03T07:48:41;10.50;44.20
12874;DHT22;6505;51.114;13.128;2023-04-03T07:51:10;10.50;44.20
12874;DHT22;6505;51.114;13.128;2023-04-03T07:53:39;10.50;44.30
12874;DHT22;6505;51.114;13.128;2023-04-03T07:56:07;10.50;44.40
12874;DHT22;6505;51.114;13.128;2023-04-03T07:58:36;10.50;44.50
12874;DHT22;6505;51.114;13.128;2023-04-03T08:01:04;10.50;43.70
12874;DHT22;6505;51.114;13.128;2023-04-03T08:03:32;10.50;44.00
12874;DHT22;6505;51.114;13.128;2023-04-03T08:06:02;10.50;44.20
12874;DHT22;6505;51.114;13.128;2023-04-03T08:08:38;10.50;44.50
12874;DHT22;6505;51.114;13.128;2023-04-03T08:11:06;10.50;44.30
12874;DHT22;6505;51.114;13.128;2023-04-03T08:13:35;10.50;44.10
12874;DHT22;6505;51.114;13.128;2023-04-03T08:16:10;10.50;44.20
12874;DHT22;6505;51.114;13.128;2023-04-03T08:18:40;10.60;44.10
12874;DHT22;6505;51.114;13.128;2023-04-03T08:21:09;10.60;44.30
12874;DHT22;6505;51.114;13.128;2023-04-03T08:23:40;10.60;44.00
12874;DHT22;6505;51.114;13.128;2023-04-03T08:26:10;10.70;44.20
12874;DHT22;6505;51.114;13.128;2023-04-03T08:28:39;10.60;43.30
12874;DHT22;6505;51.114;13.128;2023-04-03T08:31:10;10.60;43.30
12874;DHT22;6505;51.114;13.128;2023-04-03T08:33:40;10.60;43.70
12874;DHT22;6505;51.114;13.128;2023-04-03T08:36:17;10.60;43.80
12874;DHT22;6505;51.114;13.128;2023-04-03T08:38:49;10.60;44.00
12874;DHT22;6505;51.114;13.128;2023-04-03T08:41:24;10.70;43.70
12874;DHT22;6505;51.114;13.128;2023-04-03T08:44:07;10.60;44.00
12874;DHT22;6505;51.114;13.128;2023-04-03T08:46:59;10.60;44.00
12874;DHT22;6505;51.114;13.128;2023-04-03T08:49:33;10.70;44.60
12874;DHT22;6505;51.114;13.128;2023-04-03T08:52:10;10.80;45.00
12874;DHT22;6505;51.114;13.128;2023-04-03T08:54:49;10.90;45.50
12874;DHT22;6505;51.114;13.128;2023-04-03T08:57:26;11.10;45.00
12874;DHT22;6505;51.114;13.128;2023-04-03T08:59:59;11.30;44.30
12874;DHT22;6505;51.114;13.128;2023-04-03T09:02:33;11.40;44.40
12874;DHT22;6505;51.114;13.128;2023-04-03T09:05:11;11.50;43.60
12874;DHT22;6505;51.114;13.128;2023-04-03T09:07:44;11.60;43.30
12874;DHT22;6505;51.114;13.128;2023-04-03T09:10:23;11.60;43.10
12874;DHT22;6505;51.114;13.128;2023-04-03T09:12:59;11.70;42.80
12874;DHT22;6505;51.114;13.128;2023-04-03T09:15:31;11.70;42.30
12874;DHT22;6505;51.114;13.128;2023-04-03T09:18:11;11.60;41.60
12874;DHT22;6505;51.114;13.128;2023-04-03T09:20:46;11.70;42.50
12874;DHT22;6505;51.114;13.128;2023-04-03T09:23:24;11.70;42.40
12874;DHT22;6505;51.114;13.128;2023-04-03T09:26:02;11.60;41.00
12874;DHT22;6505;51.114;13.128;2023-04-03T09:28:35;11.60;40.80
12874;DHT22;6505;51.114;13.128;2023-04-03T09:31:21;11.60;41.20
12874;DHT22;6505;51.114;13.128;2023-04-03T09:33:54;11.50;41.00
12874;DHT22;6505;51.114;13.128;2023-04-03T09:36:38;11.60;41.10
12874;DHT22;6505;51.114;13.128;2023-04-03T09:39:12;11.50;40.80
12874;DHT22;6505;51.114;13.128;2023-04-03T09:41:56;11.50;40.70
12874;DHT22;6505;51.114;13.128;2023-04-03T09:44:27;11.50;40.90
12874;DHT22;6505;51.114;13.128;2023-04-03T09:46:57;11.50;40.90
12874;DHT22;6505;51.114;13.128;2023-04-03T09:49:26;11.40;40.50
12874;DHT22;6505;51.114;13.128;2023-04-03T09:51:54;11.40;40.50
12874;DHT22;6505;51.114;13.128;2023-04-03T09:54:35;11.40;40.20
12874;DHT22;6505;51.114;13.128;2023-04-03T09:57:10;11.40;40.60
12874;DHT22;6505;51.114;13.128;2023-04-03T09:59:44;11.50;40.20
12874;DHT22;6505;51.114;13.128;2023-04-03T10:02:30;11.50;40.50
12874;DHT22;6505;51.114;13.128;2023-04-03T10:05:03;11.50;39.60
12874;DHT22;6505;51.114;13.128;2023-04-03T10:07:37;11.50;39.80
12874;DHT22;6505;51.114;13.128;2023-04-03T10:10:21;11.50;40.40
12874;DHT22;6505;51.114;13.128;2023-04-03T10:13:06;11.50;40.40
12874;DHT22;6505;51.114;13.128;2023-04-03T10:15:49;11.50;40.60
12874;DHT22;6505;51.114;13.128;2023-04-03T10:18:31;11.60;39.80
12874;DHT22;6505;51.114;13.128;2023-04-03T10:21:06;11.60;38.60
12874;DHT22;6505;51.114;13.128;2023-04-03T10:23:57;11.60;38.90
12874;DHT22;6505;51.114;13.128;2023-04-03T10:26:37;11.60;39.00
12874;DHT22;6505;51.114;13.128;2023-04-03T10:32:28;11.60;39.40
12874;DHT22;6505;51.114;13.128;2023-04-03T10:35:17;11.60;39.20
12874;DHT22;6505;51.114;13.128;2023-04-03T10:38:01;11.70;39.30
12874;DHT22;6505;51.114;13.128;2023-04-03T10:40:39;11.70;38.90
12874;DHT22;6505;51.114;13.128;2023-04-03T10:43:21;11.70;38.90
12874;DHT22;6505;51.114;13.128;2023-04-03T10:46:06;11.70;38.80
12874;DHT22;6505;51.114;13.128;2023-04-03T10:48:56;11.70;39.00
12874;DHT22;6505;51.114;13.128;2023-04-03T10:51:37;11.70;38.40
12874;DHT22;6505;51.114;13.128;2023-04-03T10:54:12;11.70;38.90
12874;DHT22;6505;51.114;13.128;2023-04-03T10:56:48;11.70;38.30
12874;DHT22;6505;51.114;13.128;2023-04-03T10:59:40;11.70;37.40
12874;DHT22;6505;51.114;13.128;2023-04-03T11:02:17;11.70;38.20
12874;DHT22;6505;51.114;13.128;2023-04-03T11:04:54;11.70;37.80
12874;DHT22;6505;51.114;13.128;2023-04-03T11:07:26;11.70;37.90
12874;DHT22;6505;51.114;13.128;2023-04-03T11:10:02;11.70;37.90
12874;DHT22;6505;51.114;13.128;2023-04-03T11:12:38;11.70;38.00
12874;DHT22;6505;51.114;13.128;2023-04-03T11:15:13;11.80;38.30
12874;DHT22;6505;51.114;13.128;2023-04-03T11:17:48;11.80;37.90
12874;DHT22;6505;51.114;13.128;2023-04-03T11:20:24;11.80;38.20
12874;DHT22;6505;51.114;13.128;2023-04-03T11:23:03;11.90;37.90
12874;DHT22;6505;51.114;13.128;2023-04-03T11:25:35;11.90;37.50
12874;DHT22;6505;51.114;13.128;2023-04-03T11:28:11;11.90;36.60
12874;DHT22;6505;51.114;13.128;2023-04-03T11:30:47;11.90;36.10
12874;DHT22;6505;51.114;13.128;2023-04-03T11:33:31;11.90;36.20
12874;DHT22;6505;51.114;13.128;2023-04-03T11:36:11;12.00;36.60
12874;DHT22;6505;51.114;13.128;2023-04-03T11:38:52;11.90;36.70
12874;DHT22;6505;51.114;13.128;2023-04-03T11:41:26;11.90;36.80
12874;DHT22;6505;51.114;13.128;2023-04-03T11:43:58;11.90;36.20
12874;DHT22;6505;51.114;13.128;2023-04-03T11:46:54;11.90;35.80
12874;DHT22;6505;51.114;13.128;2023-04-03T11:49:55;11.90;36.50
12874;DHT22;6505;51.114;13.128;2023-04-03T11:52:55;12.00;36.70
12874;DHT22;6505;51.114;13.128;2023-04-03T11:55:46;11.90;37.50
12874;DHT22;6505;51.114;13.128;2023-04-03T11:58:23;11.90;37.20
12874;DHT22;6505;51.114;13.128;2023-04-03T12:01:00;12.00;37.00
12874;DHT22;6505;51.114;13.128;2023-04-03T12:10:17;12.00;36.00
12874;DHT22;6505;51.114;13.128;2023-04-03T12:12:59;12.00;36.30
12874;DHT22;6505;51.114;13.128;2023-04-03T12:15:54;12.00;35.40
12874;DHT22;6505;51.114;13.128;2023-04-03T12:18:58;12.00;35.40
12874;DHT22;6505;51.114;13.128;2023-04-03T12:22:07;12.00;34.30
12874;DHT22;6505;51.114;13.128;2023-04-03T12:24:41;12.10;35.10
12874;DHT22;6505;51.114;13.128;2023-04-03T12:27:33;12.00;35.20
12874;DHT22;6505;51.114;13.128;2023-04-03T12:30:21;12.00;35.70
12874;DHT22;6505;51.114;13.128;2023-04-03T12:33:20;12.00;35.40
12874;DHT22;6505;51.114;13.128;2023-04-03T12:36:06;12.00;35.10
12874;DHT22;6505;51.114;13.128;2023-04-03T12:38:59;12.00;35.70
12874;DHT22;6505;51.114;13.128;2023-04-03T12:41:44;12.00;36.00
12874;DHT22;6505;51.114;13.128;2023-04-03T12:44:38;12.00;35.70
12874;DHT22;6505;51.114;13.128;2023-04-03T12:47:22;12.10;35.60
12874;DHT22;6505;51.114;13.128;2023-04-03T12:49:53;12.00;35.80
12874;DHT22;6505;51.114;13.128;2023-04-03T12:52:30;12.10;35.90
12874;DHT22;6505;51.114;13.128;2023-04-03T12:55:02;12.10;36.20
12874;DHT22;6505;51.114;13.128;2023-04-03T12:57:37;12.10;36.30
12874;DHT22;6505;51.114;13.128;2023-04-03T13:00:25;12.10;36.20
12874;DHT22;6505;51.114;13.128;2023-04-03T13:02:56;12.20;36.00
12874;DHT22;6505;51.114;13.128;2023-04-03T13:05:25;12.20;35.10
12874;DHT22;6505;51.114;13.128;2023-04-03T13:07:58;12.20;34.30
12874;DHT22;6505;51.114;13.128;2023-04-03T13:10:28;12.20;34.40
12874;DHT22;6505;51.114;13.128;2023-04-03T13:13:07;12.30;34.90
12874;DHT22;6505;51.114;13.128;2023-04-03T13:15:41;12.20;34.30
12874;DHT22;6505;51.114;13.128;2023-04-03T13:18:26;12.20;35.00
12874;DHT22;6505;51.114;13.128;2023-04-03T13:21:00;12.20;35.10
12874;DHT22;6505;51.114;13.128;2023-04-03T13:23:32;12.20;35.30
12874;DHT22;6505;51.114;13.128;2023-04-03T13:26:04;12.20;34.50
12874;DHT22;6505;51.114;13.128;2023-04-03T13:28:36;12.20;35.10
12874;DHT22;6505;51.114;13.128;2023-04-03T13:31:16;12.20;35.00
12874;DHT22;6505;51.114;13.128;2023-04-03T13:33:54;12.20;34.50
12874;DHT22;6505;51.114;13.128;2023-04-03T13:36:27;12.20;34.60
12874;DHT22;6505;51.114;13.128;2023-04-03T13:39:00;12.20;34.90
12874;DHT22;6505;51.114;13.128;2023-04-03T13:41:33;12.20;35.20
12874;DHT22;6505;51.114;13.128;2023-04-03T13:44:23;12.20;35.30
12874;DHT22;6505;51.114;13.128;2023-04-03T13:46:57;12.20;35.30
12874;DHT22;6505;51.114;13.128;2023-04-03T13:49:31;12.10;35.00
12874;DHT22;6505;51.114;13.128;2023-04-03T13:52:17;12.10;35.00
12874;DHT22;6505;51.114;13.128;2023-04-03T13:54:52;12.20;35.00
12874;DHT22;6505;51.114;13.128;2023-04-03T13:57:23;12.10;33.50
12874;DHT22;6505;51.114;13.128;2023-04-03T13:59:53;12.10;34.00
12874;DHT22;6505;51.114;13.128;2023-04-03T14:02:30;12.20;34.30
12874;DHT22;6505;51.114;13.128;2023-04-03T14:05:01;12.10;35.00
12874;DHT22;6505;51.114;13.128;2023-04-03T14:07:34;12.10;35.20
12874;DHT22;6505;51.114;13.128;2023-04-03T14:10:05;12.20;35.10
12874;DHT22;6505;51.114;13.128;2023-04-03T14:12:36;12.10;34.70
12874;DHT22;6505;51.114;13.128;2023-04-03T14:15:16;12.10;35.10
12874;DHT22;6505;51.114;13.128;2023-04-03T14:17:47;12.20;35.20
12874;DHT22;6505;51.114;13.128;2023-04-03T14:20:17;12.10;34.50
12874;DHT22;6505;51.114;13.128;2023-04-03T14:22:48;12.10;35.20
12874;DHT22;6505;51.114;13.128;2023-04-03T14:25:18;12.10;34.40
12874;DHT22;6505;51.114;13.128;2023-04-03T14:27:48;12.20;34.90
12874;DHT22;6505;51.114;13.128;2023-04-03T14:30:21;12.10;34.30
12874;DHT22;6505;51.114;13.128;2023-04-03T14:32:51;12.10;34.30
12874;DHT22;6505;51.114;13.128;2023-04-03T14:35:20;12.10;34.20
12874;DHT22;6505;51.114;13.128;2023-04-03T14:37:49;12.10;33.70
12874;DHT22;6505;51.114;13.128;2023-04-03T14:40:20;12.10;33.90
12874;DHT22;6505;51.114;13.128;2023-04-03T14:42:50;12.10;34.00
12874;DHT22;6505;51.114;13.128;2023-04-03T14:45:23;12.00;34.20
12874;DHT22;6505;51.114;13.128;2023-04-03T14:47:53;12.00;33.80
12874;DHT22;6505;51.114;13.128;2023-04-03T14:50:24;12.00;34.40
12874;DHT22;6505;51.114;13.128;2023-04-03T14:52:56;12.00;34.10
12874;DHT22;6505;51.114;13.128;2023-04-03T14:55:26;12.00;34.60
12874;DHT22;6505;51.114;13.128;2023-04-03T14:57:55;12.00;34.70
12874;DHT22;6505;51.114;13.128;2023-04-03T15:00:24;12.00;33.60
12874;DHT22;6505;51.114;13.128;2023-04-03T15:02:52;11.90;34.00
12874;DHT22;6505;51.114;13.128;2023-04-03T15:05:20;11.90;34.40
12874;DHT22;6505;51.114;13.128;2023-04-03T15:07:50;11.90;34.30
12874;DHT22;6505;51.114;13.128;2023-04-03T15:10:22;11.90;34.10
12874;DHT22;6505;51.114;13.128;2023-04-03T15:12:52;11.90;34.10
12874;DHT22;6505;51.114;13.128;2023-04-03T15:15:21;11.90;33.30
12874;DHT22;6505;51.114;13.128;2023-04-03T15:17:53;12.00;33.30
12874;DHT22;6505;51.114;13.128;2023-04-03T15:20:26;11.90;33.20
12874;DHT22;6505;51.114;13.128;2023-04-03T15:22:57;11.90;33.30
12874;DHT22;6505;51.114;13.128;2023-04-03T15:25:27;11.90;33.70
12874;DHT22;6505;51.114;13.128;2023-04-03T15:27:56;11.90;33.70
12874;DHT22;6505;51.114;13.128;2023-04-03T15:30:26;11.90;33.70
12874;DHT22;6505;51.114;13.128;2023-04-03T15:32:54;11.90;32.90
12874;DHT22;6505;51.114;13.128;2023-04-03T15:35:22;11.80;33.20
12874;DHT22;6505;51.114;13.128;2023-04-03T15:37:50;11.80;33.70
12874;DHT22;6505;51.114;13.128;2023-04-03T15:40:18;11.80;33.60
12874;DHT22;6505;51.114;13.128;2023-04-03T15:42:47;11.80;33.70
12874;DHT22;6505;51.114;13.128;2023-04-03T15:45:16;11.80;33.70
12874;DHT22;6505;51.114;13.128;2023-04-03T15:47:45;11.70;33.40
12874;DHT22;6505;51.114;13.128;2023-04-03T15:50:13;11.70;33.20
12874;DHT22;6505;51.114;13.128;2023-04-03T15:52:41;11.80;33.80
12874;DHT22;6505;51.114;13.128;2023-04-03T15:55:09;11.80;33.30
12874;DHT22;6505;51.114;13.128;2023-04-03T15:57:37;11.70;33.20
12874;DHT22;6505;51.114;13.128;2023-04-03T16:00:07;11.70;32.90
12874;DHT22;6505;51.114;13.128;2023-04-03T16:02:36;11.70;33.10
12874;DHT22;6505;51.114;13.128;2023-04-03T16:05:07;11.70;33.00
12874;DHT22;6505;51.114;13.128;2023-04-03T16:07:37;11.70;33.00
12874;DHT22;6505;51.114;13.128;2023-04-03T16:10:06;11.60;32.40
12874;DHT22;6505;51.114;13.128;2023-04-03T16:12:36;11.60;32.30
12874;DHT22;6505;51.114;13.128;2023-04-03T16:15:05;11.60;32.20